sensor_id;sensor_type;location;lat;lon;timestamp;P1;durP1;ratioP1;P2;durP2;ratioP2
61915;SDS011;47868;51.326;6.550;2022-12-05T00:01:36;58.55;;;38.03;;
61915;SDS011;47868;51.326;6.550;2022-12-05T00:04:07;47.42;;;30.95;;
61915;SDS011;47868;51.326;6.550;2022-12-05T00:06:36;38.42;;;26.67;;
61915;SDS011;47868;51.326;6.550;2022-12-05T00:09:03;47.42;;;31.42;;
61915;SDS011;47868;51.326;6.550;2022-12-05T00:11:31;41.13;;;28.27;;
61915;SDS011;47868;51.326;6.550;2022-12-05T00:13:59;42.90;;;27.83;;
61915;SDS011;47868;51.326;6.550;2022-12-05T00:16:26;46.67;;;29.88;;
61915;SDS011;47868;51.326;6.550;2022-12-05T00:18:53;42.80;;;26.33;;
61915;SDS011;47868;51.326;6.550;2022-12-05T00:21:23;41.10;;;26.60;;
61915;SDS011;47868;51.326;6.550;2022-12-05T00:23:50;44.03;;;28.40;;
61915;SDS011;47868;51.326;6.550;2022-12-05T00:26:17;40.25;;;26.85;;
61915;SDS011;47868;51.326;6.550;2022-12-05T00:28:43;45.78;;;27.83;;
61915;SDS011;47868;51.326;6.550;2022-12-05T00:31:10;41.28;;;26.77;;
61915;SDS011;47868;51.326;6.550;2022-12-05T00:33:38;39.38;;;26.10;;
61915;SDS011;47868;51.326;6.550;2022-12-05T00:36:14;40.30;;;27.52;;
61915;SDS011;47868;51.326;6.550;2022-12-05T00:38:42;37.47;;;26.00;;
61915;SDS011;47868;51.326;6.550;2022-12-05T00:41:09;40.80;;;26.95;;
61915;SDS011;47868;51.326;6.550;2022-12-05T00:43:37;44.47;;;28.27;;
61915;SDS011;47868;51.326;6.550;2022-12-05T00:46:03;42.67;;;28.17;;
61915;SDS011;47868;51.326;6.550;2022-12-05T00:48:31;41.47;;;27.90;;
61915;SDS011;47868;51.326;6.550;2022-12-05T00:51:05;41.55;;;27.25;;
61915;SDS011;47868;51.326;6.550;2022-12-05T00:53:32;42.17;;;26.27;;
61915;SDS011;47868;51.326;6.550;2022-12-05T00:56:05;39.88;;;26.92;;
61915;SDS011;47868;51.326;6.550;2022-12-05T00:58:34;44.65;;;27.77;;
61915;SDS011;47868;51.326;6.550;2022-12-05T01:01:07;36.13;;;25.35;;
61915;SDS011;47868;51.326;6.550;2022-12-05T01:03:40;39.72;;;26.25;;
61915;SDS011;47868;51.326;6.550;2022-12-05T01:06:07;43.67;;;27.08;;
61915;SDS011;47868;51.326;6.550;2022-12-05T01:08:34;41.20;;;26.23;;
61915;SDS011;47868;51.326;6.550;2022-12-05T01:11:01;42.63;;;26.25;;
61915;SDS011;47868;51.326;6.550;2022-12-05T01:13:28;38.90;;;25.88;;
61915;SDS011;47868;51.326;6.550;2022-12-05T01:15:54;41.08;;;26.25;;
61915;SDS011;47868;51.326;6.550;2022-12-05T01:18:20;37.55;;;25.58;;
61915;SDS011;47868;51.326;6.550;2022-12-05T01:20:47;41.33;;;25.98;;
61915;SDS011;47868;51.326;6.550;2022-12-05T01:23:13;39.08;;;26.50;;
61915;SDS011;47868;51.326;6.550;2022-12-05T01:25:40;39.45;;;26.23;;
61915;SDS011;47868;51.326;6.550;2022-12-05T01:28:06;41.10;;;26.50;;
61915;SDS011;47868;51.326;6.550;2022-12-05T01:30:36;38.88;;;25.52;;
61915;SDS011;47868;51.326;6.550;2022-12-05T01:33:05;41.28;;;27.00;;
61915;SDS011;47868;51.326;6.550;2022-12-05T01:35:32;38.75;;;25.80;;
61915;SDS011;47868;51.326;6.550;2022-12-05T01:37:58;39.72;;;26.23;;
61915;SDS011;47868;51.326;6.550;2022-12-05T01:40:24;41.72;;;26.25;;
61915;SDS011;47868;51.326;6.550;2022-12-05T01:42:49;42.72;;;27.38;;
61915;SDS011;47868;51.326;6.550;2022-12-05T01:45:16;40.45;;;27.05;;
61915;SDS011;47868;51.326;6.550;2022-12-05T01:48:01;38.90;;;26.58;;
61915;SDS011;47868;51.326;6.550;2022-12-05T01:50:30;38.92;;;26.80;;
61915;SDS011;47868;51.326;6.550;2022-12-05T01:52:57;39.20;;;25.92;;
61915;SDS011;47868;51.326;6.550;2022-12-05T01:55:22;35.42;;;25.35;;
61915;SDS011;47868;51.326;6.550;2022-12-05T01:57:48;41.58;;;25.92;;
61915;SDS011;47868;51.326;6.550;2022-12-05T02:00:15;39.40;;;24.70;;
61915;SDS011;47868;51.326;6.550;2022-12-05T02:02:45;36.50;;;25.58;;
61915;SDS011;47868;51.326;6.550;2022-12-05T02:05:49;41.72;;;26.20;;
61915;SDS011;47868;51.326;6.550;2022-12-05T02:08:07;40.28;;;25.40;;
61915;SDS011;47868;51.326;6.550;2022-12-05T02:10:36;44.08;;;26.08;;
61915;SDS011;47868;51.326;6.550;2022-12-05T02:26:55;34.13;;;23.55;;
61915;SDS011;47868;51.326;6.550;2022-12-05T02:29:55;34.58;;;25.25;;
61915;SDS011;47868;51.326;6.550;2022-12-05T02:44:02;36.72;;;24.60;;
61915;SDS011;47868;51.326;6.550;2022-12-05T02:46:21;35.22;;;24.23;;
61915;SDS011;47868;51.326;6.550;2022-12-05T02:48:50;34.67;;;24.20;;
61915;SDS011;47868;51.326;6.550;2022-12-05T02:51:21;34.78;;;24.42;;
61915;SDS011;47868;51.326;6.550;2022-12-05T02:53:49;32.92;;;23.83;;
61915;SDS011;47868;51.326;6.550;2022-12-05T02:56:18;34.88;;;23.83;;
61915;SDS011;47868;51.326;6.550;2022-12-05T02:58:46;35.42;;;25.35;;
61915;SDS011;47868;51.326;6.550;2022-12-05T03:01:16;40.90;;;26.08;;
61915;SDS011;47868;51.326;6.550;2022-12-05T03:03:43;40.90;;;27.20;;
61915;SDS011;47868;51.326;6.550;2022-12-05T03:08:41;34.85;;;24.45;;
61915;SDS011;47868;51.326;6.550;2022-12-05T03:11:08;37.40;;;24.73;;
61915;SDS011;47868;51.326;6.550;2022-12-05T03:13:37;39.53;;;25.55;;
61915;SDS011;47868;51.326;6.550;2022-12-05T03:16:28;37.58;;;25.85;;
61915;SDS011;47868;51.326;6.550;2022-12-05T03:19:11;35.50;;;25.70;;
61915;SDS011;47868;51.326;6.550;2022-12-05T03:21:54;39.45;;;25.67;;
61915;SDS011;47868;51.326;6.550;2022-12-05T03:24:25;36.58;;;24.40;;
61915;SDS011;47868;51.326;6.550;2022-12-05T03:26:56;37.50;;;24.42;;
61915;SDS011;47868;51.326;6.550;2022-12-05T03:35:02;37.45;;;26.60;;
61915;SDS011;47868;51.326;6.550;2022-12-05T03:51:17;41.00;;;26.73;;
61915;SDS011;47868;51.326;6.550;2022-12-05T03:53:49;36.00;;;26.33;;
61915;SDS011;47868;51.326;6.550;2022-12-05T03:56:24;37.38;;;25.45;;
61915;SDS011;47868;51.326;6.550;2022-12-05T03:59:04;39.17;;;26.48;;
61915;SDS011;47868;51.326;6.550;2022-12-05T04:01:38;40.58;;;27.10;;
61915;SDS011;47868;51.326;6.550;2022-12-05T04:04:10;41.28;;;27.27;;
61915;SDS011;47868;51.326;6.550;2022-12-05T04:06:40;40.63;;;27.42;;
61915;SDS011;47868;51.326;6.550;2022-12-05T04:09:11;36.60;;;26.38;;
61915;SDS011;47868;51.326;6.550;2022-12-05T04:11:42;39.30;;;25.90;;
61915;SDS011;47868;51.326;6.550;2022-12-05T04:14:15;38.90;;;26.95;;
61915;SDS011;47868;51.326;6.550;2022-12-05T04:16:52;39.95;;;26.58;;
61915;SDS011;47868;51.326;6.550;2022-12-05T04:22:29;39.45;;;27.17;;
61915;SDS011;47868;51.326;6.550;2022-12-05T04:24:56;40.78;;;26.05;;
61915;SDS011;47868;51.326;6.550;2022-12-05T04:30:16;37.58;;;26.13;;
61915;SDS011;47868;51.326;6.550;2022-12-05T04:35:34;37.40;;;26.52;;
61915;SDS011;47868;51.326;6.550;2022-12-05T04:38:07;39.90;;;26.73;;
61915;SDS011;47868;51.326;6.550;2022-12-05T04:40:47;34.42;;;25.05;;
61915;SDS011;47868;51.326;6.550;2022-12-05T04:43:25;37.28;;;26.17;;
61915;SDS011;47868;51.326;6.550;2022-12-05T04:45:54;36.40;;;25.88;;
61915;SDS011;47868;51.326;6.550;2022-12-05T04:48:22;39.00;;;25.45;;
61915;SDS011;47868;51.326;6.550;2022-12-05T04:50:50;35.50;;;25.42;;
61915;SDS011;47868;51.326;6.550;2022-12-05T04:53:18;36.90;;;26.13;;
61915;SDS011;47868;51.326;6.550;2022-12-05T04:55:48;40.15;;;26.98;;
61915;SDS011;47868;51.326;6.550;2022-12-05T04:58:17;37.13;;;24.88;;
61915;SDS011;47868;51.326;6.550;2022-12-05T05:05:56;40.83;;;26.60;;
61915;SDS011;47868;51.326;6.550;2022-12-05T05:08:23;40.53;;;27.25;;
61915;SDS011;47868;51.326;6.550;2022-12-05T05:13:56;41.05;;;26.02;;
61915;SDS011;47868;51.326;6.550;2022-12-05T05:16:23;42.72;;;26.90;;
61915;SDS011;47868;51.326;6.550;2022-12-05T05:18:53;37.63;;;26.23;;
61915;SDS011;47868;51.326;6.550;2022-12-05T05:23:47;38.58;;;26.77;;
61915;SDS011;47868;51.326;6.550;2022-12-05T05:26:13;43.45;;;28.05;;
61915;SDS011;47868;51.326;6.550;2022-12-05T05:28:40;41.90;;;27.23;;
61915;SDS011;47868;51.326;6.550;2022-12-05T05:31:05;44.35;;;27.67;;
61915;SDS011;47868;51.326;6.550;2022-12-05T05:33:32;40.15;;;25.90;;
61915;SDS011;47868;51.326;6.550;2022-12-05T05:36:02;38.22;;;26.98;;
61915;SDS011;47868;51.326;6.550;2022-12-05T05:38:39;39.38;;;25.85;;
61915;SDS011;47868;51.326;6.550;2022-12-05T05:41:11;36.25;;;24.98;;
61915;SDS011;47868;51.326;6.550;2022-12-05T05:43:43;38.25;;;25.00;;
61915;SDS011;47868;51.326;6.550;2022-12-05T05:46:09;35.15;;;24.17;;
61915;SDS011;47868;51.326;6.550;2022-12-05T05:48:35;39.00;;;24.95;;
61915;SDS011;47868;51.326;6.550;2022-12-05T05:51:02;34.05;;;23.10;;
61915;SDS011;47868;51.326;6.550;2022-12-05T05:53:28;35.17;;;24.30;;
61915;SDS011;47868;51.326;6.550;2022-12-05T05:55:54;32.63;;;24.50;;
61915;SDS011;47868;51.326;6.550;2022-12-05T05:58:20;41.53;;;27.90;;
61915;SDS011;47868;51.326;6.550;2022-12-05T06:00:45;41.95;;;29.05;;
61915;SDS011;47868;51.326;6.550;2022-12-05T06:03:11;38.83;;;29.88;;
61915;SDS011;47868;51.326;6.550;2022-12-05T06:05:36;36.47;;;26.25;;
61915;SDS011;47868;51.326;6.550;2022-12-05T06:08:02;39.90;;;27.05;;
61915;SDS011;47868;51.326;6.550;2022-12-05T06:10:29;44.70;;;28.77;;
61915;SDS011;47868;51.326;6.550;2022-12-05T06:12:56;35.63;;;26.25;;
61915;SDS011;47868;51.326;6.550;2022-12-05T06:15:23;39.75;;;26.33;;
61915;SDS011;47868;51.326;6.550;2022-12-05T06:17:49;38.63;;;26.98;;
61915;SDS011;47868;51.326;6.550;2022-12-05T06:20:14;34.83;;;25.90;;
61915;SDS011;47868;51.326;6.550;2022-12-05T06:22:41;36.55;;;26.70;;
61915;SDS011;47868;51.326;6.550;2022-12-05T06:25:08;37.22;;;25.17;;
61915;SDS011;47868;51.326;6.550;2022-12-05T06:27:36;36.53;;;26.23;;
61915;SDS011;47868;51.326;6.550;2022-12-05T06:30:01;41.15;;;30.20;;
61915;SDS011;47868;51.326;6.550;2022-12-05T06:32:28;38.03;;;26.50;;
61915;SDS011;47868;51.326;6.550;2022-12-05T06:34:54;34.97;;;25.23;;
61915;SDS011;47868;51.326;6.550;2022-12-05T06:37:19;38.05;;;28.08;;
61915;SDS011;47868;51.326;6.550;2022-12-05T06:39:45;45.40;;;30.70;;
61915;SDS011;47868;51.326;6.550;2022-12-05T06:42:11;36.33;;;26.92;;
61915;SDS011;47868;51.326;6.550;2022-12-05T06:44:36;37.45;;;25.65;;
61915;SDS011;47868;51.326;6.550;2022-12-05T06:47:02;33.30;;;24.02;;
61915;SDS011;47868;51.326;6.550;2022-12-05T06:49:28;34.10;;;23.48;;
61915;SDS011;47868;51.326;6.550;2022-12-05T06:51:57;34.13;;;24.80;;
61915;SDS011;47868;51.326;6.550;2022-12-05T06:54:23;39.88;;;26.27;;
61915;SDS011;47868;51.326;6.550;2022-12-05T06:56:49;36.40;;;24.63;;
61915;SDS011;47868;51.326;6.550;2022-12-05T06:59:14;37.63;;;25.98;;
61915;SDS011;47868;51.326;6.550;2022-12-05T07:01:40;35.67;;;24.80;;
61915;SDS011;47868;51.326;6.550;2022-12-05T07:04:11;35.97;;;25.40;;
61915;SDS011;47868;51.326;6.550;2022-12-05T07:06:39;38.28;;;24.98;;
61915;SDS011;47868;51.326;6.550;2022-12-05T07:09:06;36.75;;;25.45;;
61915;SDS011;47868;51.326;6.550;2022-12-05T07:11:32;38.08;;;23.92;;
61915;SDS011;47868;51.326;6.550;2022-12-05T07:13:58;36.35;;;24.55;;
61915;SDS011;47868;51.326;6.550;2022-12-05T07:16:24;31.35;;;22.20;;
61915;SDS011;47868;51.326;6.550;2022-12-05T07:18:51;35.33;;;23.48;;
61915;SDS011;47868;51.326;6.550;2022-12-05T07:21:17;35.42;;;22.60;;
61915;SDS011;47868;51.326;6.550;2022-12-05T07:23:45;32.42;;;22.67;;
61915;SDS011;47868;51.326;6.550;2022-12-05T07:26:12;33.95;;;23.42;;
61915;SDS011;47868;51.326;6.550;2022-12-05T07:28:39;34.85;;;22.98;;
61915;SDS011;47868;51.326;6.550;2022-12-05T07:31:09;31.25;;;23.08;;
61915;SDS011;47868;51.326;6.550;2022-12-05T07:33:36;30.77;;;22.98;;
61915;SDS011;47868;51.326;6.550;2022-12-05T07:36:03;31.70;;;21.90;;
61915;SDS011;47868;51.326;6.550;2022-12-05T07:38:31;30.92;;;21.83;;
61915;SDS011;47868;51.326;6.550;2022-12-05T07:40:57;29.00;;;20.58;;
61915;SDS011;47868;51.326;6.550;2022-12-05T07:43:23;30.80;;;21.48;;
61915;SDS011;47868;51.326;6.550;2022-12-05T07:45:50;30.30;;;20.92;;
61915;SDS011;47868;51.326;6.550;2022-12-05T07:48:16;27.67;;;21.90;;
61915;SDS011;47868;51.326;6.550;2022-12-05T07:50:42;28.00;;;21.08;;
61915;SDS011;47868;51.326;6.550;2022-12-05T07:53:08;28.05;;;20.83;;
61915;SDS011;47868;51.326;6.550;2022-12-05T07:55:36;26.42;;;20.23;;
61915;SDS011;47868;51.326;6.550;2022-12-05T07:58:01;26.10;;;19.70;;
61915;SDS011;47868;51.326;6.550;2022-12-05T08:00:27;25.60;;;19.83;;
61915;SDS011;47868;51.326;6.550;2022-12-05T08:02:53;26.58;;;19.70;;
61915;SDS011;47868;51.326;6.550;2022-12-05T08:05:20;28.17;;;20.38;;
61915;SDS011;47868;51.326;6.550;2022-12-05T08:07:46;26.92;;;19.50;;
61915;SDS011;47868;51.326;6.550;2022-12-05T08:10:11;27.58;;;19.88;;
61915;SDS011;47868;51.326;6.550;2022-12-05T08:12:37;25.98;;;19.08;;
61915;SDS011;47868;51.326;6.550;2022-12-05T08:15:03;23.40;;;18.15;;
61915;SDS011;47868;51.326;6.550;2022-12-05T08:17:30;26.25;;;19.02;;
61915;SDS011;47868;51.326;6.550;2022-12-05T08:19:56;25.42;;;19.38;;
61915;SDS011;47868;51.326;6.550;2022-12-05T08:22:21;22.70;;;18.85;;
61915;SDS011;47868;51.326;6.550;2022-12-05T08:24:50;26.73;;;19.00;;
61915;SDS011;47868;51.326;6.550;2022-12-05T08:27:16;24.65;;;18.23;;
61915;SDS011;47868;51.326;6.550;2022-12-05T08:29:41;23.33;;;18.38;;
61915;SDS011;47868;51.326;6.550;2022-12-05T08:32:07;25.08;;;18.08;;
61915;SDS011;47868;51.326;6.550;2022-12-05T08:34:32;23.30;;;16.88;;
61915;SDS011;47868;51.326;6.550;2022-12-05T08:36:58;22.23;;;17.83;;
61915;SDS011;47868;51.326;6.550;2022-12-05T08:39:24;22.80;;;16.83;;
61915;SDS011;47868;51.326;6.550;2022-12-05T08:41:51;22.77;;;17.30;;
61915;SDS011;47868;51.326;6.550;2022-12-05T08:44:17;23.08;;;18.58;;
61915;SDS011;47868;51.326;6.550;2022-12-05T08:46:44;24.08;;;18.02;;
61915;SDS011;47868;51.326;6.550;2022-12-05T08:49:11;21.35;;;16.27;;
61915;SDS011;47868;51.326;6.550;2022-12-05T08:51:38;23.10;;;16.45;;
61915;SDS011;47868;51.326;6.550;2022-12-05T08:54:05;18.70;;;16.55;;
61915;SDS011;47868;51.326;6.550;2022-12-05T08:56:32;22.38;;;17.60;;
61915;SDS011;47868;51.326;6.550;2022-12-05T08:58:58;22.75;;;18.35;;
61915;SDS011;47868;51.326;6.550;2022-12-05T09:01:26;21.85;;;16.90;;
61915;SDS011;47868;51.326;6.550;2022-12-05T09:03:57;24.45;;;18.70;;
61915;SDS011;47868;51.326;6.550;2022-12-05T09:06:25;21.27;;;17.23;;
61915;SDS011;47868;51.326;6.550;2022-12-05T09:08:52;24.20;;;18.00;;
61915;SDS011;47868;51.326;6.550;2022-12-05T09:11:23;21.17;;;16.88;;
61915;SDS011;47868;51.326;6.550;2022-12-05T09:13:51;21.42;;;16.88;;
61915;SDS011;47868;51.326;6.550;2022-12-05T09:16:20;21.58;;;16.75;;
61915;SDS011;47868;51.326;6.550;2022-12-05T09:18:47;18.48;;;15.55;;
61915;SDS011;47868;51.326;6.550;2022-12-05T09:21:15;19.88;;;15.43;;
61915;SDS011;47868;51.326;6.550;2022-12-05T09:23:42;25.33;;;16.35;;
61915;SDS011;47868;51.326;6.550;2022-12-05T09:26:10;16.40;;;14.52;;
61915;SDS011;47868;51.326;6.550;2022-12-05T09:28:38;19.85;;;15.20;;
61915;SDS011;47868;51.326;6.550;2022-12-05T09:31:06;18.40;;;15.38;;
61915;SDS011;47868;51.326;6.550;2022-12-05T09:33:34;18.58;;;14.80;;
61915;SDS011;47868;51.326;6.550;2022-12-05T09:36:05;18.98;;;15.13;;
61915;SDS011;47868;51.326;6.550;2022-12-05T09:38:37;19.52;;;16.63;;
61915;SDS011;47868;51.326;6.550;2022-12-05T09:50:01;19.20;;;16.10;;
61915;SDS011;47868;51.326;6.550;2022-12-05T09:55:19;20.67;;;17.48;;
61915;SDS011;47868;51.326;6.550;2022-12-05T09:57:48;21.40;;;16.98;;
61915;SDS011;47868;51.326;6.550;2022-12-05T10:00:22;23.23;;;18.08;;
61915;SDS011;47868;51.326;6.550;2022-12-05T10:02:53;20.35;;;16.90;;
61915;SDS011;47868;51.326;6.550;2022-12-05T10:08:25;20.13;;;17.42;;
61915;SDS011;47868;51.326;6.550;2022-12-05T10:11:08;21.98;;;17.52;;
61915;SDS011;47868;51.326;6.550;2022-12-05T10:16:13;24.17;;;17.98;;
61915;SDS011;47868;51.326;6.550;2022-12-05T10:18:56;22.02;;;17.80;;
61915;SDS011;47868;51.326;6.550;2022-12-05T10:24:15;21.33;;;16.90;;
61915;SDS011;47868;51.326;6.550;2022-12-05T10:26:53;18.65;;;15.40;;
61915;SDS011;47868;51.326;6.550;2022-12-05T10:32:22;20.45;;;15.02;;
61915;SDS011;47868;51.326;6.550;2022-12-05T10:38:36;19.67;;;14.93;;
61915;SDS011;47868;51.326;6.550;2022-12-05T10:40:48;20.48;;;15.50;;
61915;SDS011;47868;51.326;6.550;2022-12-05T10:43:19;15.55;;;13.95;;
61915;SDS011;47868;51.326;6.550;2022-12-05T10:45:52;17.95;;;14.55;;
61915;SDS011;47868;51.326;6.550;2022-12-05T10:48:20;18.40;;;16.15;;
61915;SDS011;47868;51.326;6.550;2022-12-05T10:50:50;19.00;;;15.95;;
61915;SDS011;47868;51.326;6.550;2022-12-05T10:53:23;18.33;;;15.40;;
61915;SDS011;47868;51.326;6.550;2022-12-05T10:55:53;17.07;;;15.27;;
61915;SDS011;47868;51.326;6.550;2022-12-05T10:58:25;15.67;;;13.53;;
61915;SDS011;47868;51.326;6.550;2022-12-05T11:01:05;15.10;;;13.30;;
61915;SDS011;47868;51.326;6.550;2022-12-05T11:03:36;15.02;;;12.57;;
61915;SDS011;47868;51.326;6.550;2022-12-05T11:06:14;17.27;;;12.60;;
61915;SDS011;47868;51.326;6.550;2022-12-05T11:08:52;13.25;;;11.68;;
61915;SDS011;47868;51.326;6.550;2022-12-05T11:11:21;12.43;;;11.23;;
61915;SDS011;47868;51.326;6.550;2022-12-05T11:13:55;15.00;;;12.60;;
61915;SDS011;47868;51.326;6.550;2022-12-05T11:16:28;17.45;;;12.70;;
61915;SDS011;47868;51.326;6.550;2022-12-05T11:18:56;12.25;;;11.05;;
61915;SDS011;47868;51.326;6.550;2022-12-05T11:21:42;15.85;;;13.40;;
61915;SDS011;47868;51.326;6.550;2022-12-05T11:24:21;14.27;;;12.77;;
61915;SDS011;47868;51.326;6.550;2022-12-05T11:26:48;16.63;;;14.75;;
61915;SDS011;47868;51.326;6.550;2022-12-05T11:29:26;16.67;;;14.65;;
61915;SDS011;47868;51.326;6.550;2022-12-05T11:32:00;14.52;;;13.02;;
61915;SDS011;47868;51.326;6.550;2022-12-05T11:34:31;16.10;;;14.20;;
61915;SDS011;47868;51.326;6.550;2022-12-05T11:37:06;18.17;;;15.20;;
61915;SDS011;47868;51.326;6.550;2022-12-05T11:39:39;19.13;;;14.13;;
61915;SDS011;47868;51.326;6.550;2022-12-05T12:08:55;24.65;;;18.48;;
61915;SDS011;47868;51.326;6.550;2022-12-05T12:11:49;23.08;;;17.92;;
61915;SDS011;47868;51.326;6.550;2022-12-05T12:39:08;24.02;;;18.98;;
61915;SDS011;47868;51.326;6.550;2022-12-05T12:47:15;19.80;;;16.35;;
61915;SDS011;47868;51.326;6.550;2022-12-05T12:55:43;20.05;;;17.67;;
61915;SDS011;47868;51.326;6.550;2022-12-05T12:58:18;19.75;;;16.60;;
61915;SDS011;47868;51.326;6.550;2022-12-05T13:04:07;19.37;;;15.67;;
61915;SDS011;47868;51.326;6.550;2022-12-05T13:06:51;20.02;;;16.13;;
61915;SDS011;47868;51.326;6.550;2022-12-05T13:09:35;18.15;;;16.20;;
61915;SDS011;47868;51.326;6.550;2022-12-05T13:12:15;18.27;;;14.65;;
61915;SDS011;47868;51.326;6.550;2022-12-05T13:14:46;15.90;;;13.93;;
61915;SDS011;47868;51.326;6.550;2022-12-05T13:17:18;15.07;;;13.45;;
61915;SDS011;47868;51.326;6.550;2022-12-05T13:19:48;17.10;;;14.37;;
61915;SDS011;47868;51.326;6.550;2022-12-05T13:22:15;14.95;;;13.40;;
61915;SDS011;47868;51.326;6.550;2022-12-05T13:24:44;14.33;;;12.73;;
61915;SDS011;47868;51.326;6.550;2022-12-05T13:27:17;13.57;;;12.18;;
61915;SDS011;47868;51.326;6.550;2022-12-05T13:29:55;12.25;;;10.95;;
61915;SDS011;47868;51.326;6.550;2022-12-05T13:33:00;12.05;;;10.80;;
61915;SDS011;47868;51.326;6.550;2022-12-05T13:38:31;11.68;;;10.48;;
61915;SDS011;47868;51.326;6.550;2022-12-05T13:41:20;11.27;;;10.10;;
61915;SDS011;47868;51.326;6.550;2022-12-05T13:44:07;11.77;;;10.57;;
61915;SDS011;47868;51.326;6.550;2022-12-05T13:46:38;11.67;;;10.47;;
61915;SDS011;47868;51.326;6.550;2022-12-05T13:51:55;11.10;;;10.00;;
61915;SDS011;47868;51.326;6.550;2022-12-05T13:54:31;11.85;;;10.68;;
61915;SDS011;47868;51.326;6.550;2022-12-05T13:57:00;12.05;;;10.77;;
61915;SDS011;47868;51.326;6.550;2022-12-05T14:05:22;10.52;;;9.52;;
61915;SDS011;47868;51.326;6.550;2022-12-05T14:07:55;11.20;;;9.97;;
61915;SDS011;47868;51.326;6.550;2022-12-05T14:11:05;12.60;;;10.67;;
61915;SDS011;47868;51.326;6.550;2022-12-05T14:15:39;11.80;;;10.60;;
61915;SDS011;47868;51.326;6.550;2022-12-05T14:21:04;13.00;;;11.70;;
61915;SDS011;47868;51.326;6.550;2022-12-05T14:31:27;12.33;;;11.10;;
61915;SDS011;47868;51.326;6.550;2022-12-05T14:36:55;13.30;;;11.87;;
61915;SDS011;47868;51.326;6.550;2022-12-05T14:39:26;13.20;;;11.53;;
61915;SDS011;47868;51.326;6.550;2022-12-05T14:41:58;13.93;;;12.53;;
61915;SDS011;47868;51.326;6.550;2022-12-05T14:44:24;14.15;;;12.43;;
61915;SDS011;47868;51.326;6.550;2022-12-05T14:46:56;15.37;;;12.87;;
61915;SDS011;47868;51.326;6.550;2022-12-05T14:52:17;14.75;;;13.10;;
61915;SDS011;47868;51.326;6.550;2022-12-05T14:54:45;12.43;;;11.13;;
61915;SDS011;47868;51.326;6.550;2022-12-05T14:57:12;13.17;;;11.70;;
61915;SDS011;47868;51.326;6.550;2022-12-05T14:59:44;14.63;;;13.05;;
61915;SDS011;47868;51.326;6.550;2022-12-05T15:02:20;14.57;;;11.67;;
61915;SDS011;47868;51.326;6.550;2022-12-05T15:05:35;13.00;;;11.52;;
61915;SDS011;47868;51.326;6.550;2022-12-05T15:07:47;13.30;;;12.00;;
61915;SDS011;47868;51.326;6.550;2022-12-05T15:10:33;13.82;;;11.90;;
61915;SDS011;47868;51.326;6.550;2022-12-05T15:13:04;13.27;;;11.60;;
61915;SDS011;47868;51.326;6.550;2022-12-05T15:28:55;13.57;;;11.77;;
61915;SDS011;47868;51.326;6.550;2022-12-05T15:31:22;13.93;;;12.43;;
61915;SDS011;47868;51.326;6.550;2022-12-05T15:33:51;12.60;;;11.20;;
61915;SDS011;47868;51.326;6.550;2022-12-05T15:36:22;14.70;;;12.77;;
61915;SDS011;47868;51.326;6.550;2022-12-05T15:38:56;13.47;;;12.07;;
61915;SDS011;47868;51.326;6.550;2022-12-05T15:41:22;12.83;;;11.50;;
61915;SDS011;47868;51.326;6.550;2022-12-05T15:43:55;12.95;;;11.32;;
61915;SDS011;47868;51.326;6.550;2022-12-05T15:46:22;12.57;;;11.07;;
61915;SDS011;47868;51.326;6.550;2022-12-05T15:48:53;11.97;;;10.83;;
61915;SDS011;47868;51.326;6.550;2022-12-05T15:51:20;12.60;;;11.30;;
61915;SDS011;47868;51.326;6.550;2022-12-05T15:54:13;12.53;;;11.03;;
61915;SDS011;47868;51.326;6.550;2022-12-05T15:56:51;13.47;;;11.57;;
61915;SDS011;47868;51.326;6.550;2022-12-05T15:59:49;12.23;;;11.03;;
61915;SDS011;47868;51.326;6.550;2022-12-05T16:02:22;12.40;;;11.20;;
61915;SDS011;47868;51.326;6.550;2022-12-05T16:04:59;13.05;;;11.48;;
61915;SDS011;47868;51.326;6.550;2022-12-05T16:07:26;14.27;;;12.47;;
61915;SDS011;47868;51.326;6.550;2022-12-05T16:09:55;14.33;;;12.70;;
61915;SDS011;47868;51.326;6.550;2022-12-05T16:12:29;14.73;;;12.20;;
61915;SDS011;47868;51.326;6.550;2022-12-05T16:14:56;15.03;;;13.03;;
61915;SDS011;47868;51.326;6.550;2022-12-05T16:17:30;15.03;;;13.00;;
61915;SDS011;47868;51.326;6.550;2022-12-05T16:20:09;14.53;;;13.10;;
61915;SDS011;47868;51.326;6.550;2022-12-05T16:22:36;15.03;;;13.43;;
61915;SDS011;47868;51.326;6.550;2022-12-05T16:25:28;14.20;;;12.80;;
61915;SDS011;47868;51.326;6.550;2022-12-05T16:30:33;15.00;;;13.40;;
61915;SDS011;47868;51.326;6.550;2022-12-05T16:33:09;16.13;;;13.90;;
61915;SDS011;47868;51.326;6.550;2022-12-05T16:35:39;15.77;;;14.07;;
61915;SDS011;47868;51.326;6.550;2022-12-05T16:38:17;15.97;;;13.67;;
61915;SDS011;47868;51.326;6.550;2022-12-05T16:43:40;18.03;;;15.63;;
61915;SDS011;47868;51.326;6.550;2022-12-05T16:48:39;21.03;;;17.07;;
61915;SDS011;47868;51.326;6.550;2022-12-05T16:53:53;16.50;;;14.23;;
61915;SDS011;47868;51.326;6.550;2022-12-05T16:56:27;16.03;;;14.13;;
61915;SDS011;47868;51.326;6.550;2022-12-05T16:58:55;15.73;;;13.90;;
61915;SDS011;47868;51.326;6.550;2022-12-05T17:01:23;16.20;;;14.00;;
61915;SDS011;47868;51.326;6.550;2022-12-05T17:03:50;16.53;;;14.47;;
61915;SDS011;47868;51.326;6.550;2022-12-05T17:06:17;15.50;;;13.87;;
61915;SDS011;47868;51.326;6.550;2022-12-05T17:08:45;15.27;;;13.17;;
61915;SDS011;47868;51.326;6.550;2022-12-05T17:11:14;17.77;;;13.13;;
61915;SDS011;47868;51.326;6.550;2022-12-05T17:13:45;15.93;;;12.83;;
61915;SDS011;47868;51.326;6.550;2022-12-05T17:16:12;14.57;;;13.07;;
61915;SDS011;47868;51.326;6.550;2022-12-05T17:18:44;16.17;;;14.07;;
61915;SDS011;47868;51.326;6.550;2022-12-05T17:21:23;17.00;;;14.07;;
61915;SDS011;47868;51.326;6.550;2022-12-05T17:23:50;16.23;;;14.53;;
61915;SDS011;47868;51.326;6.550;2022-12-05T17:26:18;14.47;;;12.97;;
61915;SDS011;47868;51.326;6.550;2022-12-05T17:28:45;14.73;;;13.17;;
61915;SDS011;47868;51.326;6.550;2022-12-05T17:31:11;15.67;;;13.83;;
61915;SDS011;47868;51.326;6.550;2022-12-05T17:33:42;16.87;;;14.77;;
61915;SDS011;47868;51.326;6.550;2022-12-05T17:36:12;14.97;;;13.47;;
61915;SDS011;47868;51.326;6.550;2022-12-05T17:38:38;14.93;;;13.37;;
61915;SDS011;47868;51.326;6.550;2022-12-05T17:41:03;15.33;;;13.73;;
61915;SDS011;47868;51.326;6.550;2022-12-05T17:43:32;16.77;;;14.80;;
61915;SDS011;47868;51.326;6.550;2022-12-05T17:45:58;16.13;;;13.37;;
61915;SDS011;47868;51.326;6.550;2022-12-05T17:48:24;15.47;;;13.87;;
61915;SDS011;47868;51.326;6.550;2022-12-05T17:50:50;22.77;;;20.37;;
61915;SDS011;47868;51.326;6.550;2022-12-05T17:53:18;16.60;;;14.87;;
61915;SDS011;47868;51.326;6.550;2022-12-05T17:55:45;16.77;;;14.97;;
61915;SDS011;47868;51.326;6.550;2022-12-05T17:58:14;15.27;;;13.37;;
61915;SDS011;47868;51.326;6.550;2022-12-05T18:00:41;15.40;;;13.80;;
61915;SDS011;47868;51.326;6.550;2022-12-05T18:03:11;15.03;;;13.43;;
61915;SDS011;47868;51.326;6.550;2022-12-05T18:05:38;13.53;;;12.23;;
61915;SDS011;47868;51.326;6.550;2022-12-05T18:08:04;14.40;;;12.73;;
61915;SDS011;47868;51.326;6.550;2022-12-05T18:10:30;14.10;;;12.63;;
61915;SDS011;47868;51.326;6.550;2022-12-05T18:12:56;14.50;;;13.03;;